sensor_id;sensor_type;location;lat;lon;timestamp;P1;durP1;ratioP1;P2;durP2;ratioP2
14096;SDS011;7125;48.106;11.544;2022-12-07T00:00:50;9.53;;;8.53;;
14096;SDS011;7125;48.106;11.544;2022-12-07T00:03:17;11.90;;;9.10;;
14096;SDS011;7125;48.106;11.544;2022-12-07T00:05:45;9.03;;;8.13;;
14096;SDS011;7125;48.106;11.544;2022-12-07T00:08:12;11.07;;;8.70;;
14096;SDS011;7125;48.106;11.544;2022-12-07T00:10:39;9.63;;;8.70;;
14096;SDS011;7125;48.106;11.544;2022-12-07T00:13:07;9.47;;;8.40;;
14096;SDS011;7125;48.106;11.544;2022-12-07T00:15:34;10.07;;;8.47;;
14096;SDS011;7125;48.106;11.544;2022-12-07T00:18:01;8.63;;;7.67;;
14096;SDS011;7125;48.106;11.544;2022-12-07T00:20:31;9.20;;;8.07;;
14096;SDS011;7125;48.106;11.544;2022-12-07T00:22:59;8.33;;;6.90;;
14096;SDS011;7125;48.106;11.544;2022-12-07T00:25:26;10.73;;;8.67;;
14096;SDS011;7125;48.106;11.544;2022-12-07T00:27:54;9.27;;;8.33;;
14096;SDS011;7125;48.106;11.544;2022-12-07T00:30:21;9.60;;;7.93;;
14096;SDS011;7125;48.106;11.544;2022-12-07T00:32:48;8.90;;;7.63;;
14096;SDS011;7125;48.106;11.544;2022-12-07T00:35:16;10.03;;;9.03;;
14096;SDS011;7125;48.106;11.544;2022-12-07T00:37:44;9.67;;;8.13;;
14096;SDS011;7125;48.106;11.544;2022-12-07T00:40:12;10.57;;;9.23;;
14096;SDS011;7125;48.106;11.544;2022-12-07T00:42:40;9.90;;;8.87;;
14096;SDS011;7125;48.106;11.544;2022-12-07T00:45:08;9.67;;;8.27;;
14096;SDS011;7125;48.106;11.544;2022-12-07T00:47:36;9.33;;;8.43;;
14096;SDS011;7125;48.106;11.544;2022-12-07T00:50:04;8.83;;;7.93;;
14096;SDS011;7125;48.106;11.544;2022-12-07T00:52:32;8.50;;;7.53;;
14096;SDS011;7125;48.106;11.544;2022-12-07T00:54:59;8.93;;;7.60;;
14096;SDS011;7125;48.106;11.544;2022-12-07T00:57:27;9.57;;;8.07;;
14096;SDS011;7125;48.106;11.544;2022-12-07T00:59:56;13.63;;;9.27;;
14096;SDS011;7125;48.106;11.544;2022-12-07T01:02:25;9.43;;;8.10;;
14096;SDS011;7125;48.106;11.544;2022-12-07T01:04:52;8.60;;;7.80;;
14096;SDS011;7125;48.106;11.544;2022-12-07T01:07:19;8.93;;;8.00;;
14096;SDS011;7125;48.106;11.544;2022-12-07T01:09:46;9.30;;;8.03;;
14096;SDS011;7125;48.106;11.544;2022-12-07T01:12:15;8.77;;;7.63;;
14096;SDS011;7125;48.106;11.544;2022-12-07T01:14:44;11.20;;;7.73;;
14096;SDS011;7125;48.106;11.544;2022-12-07T01:17:10;8.00;;;7.13;;
14096;SDS011;7125;48.106;11.544;2022-12-07T01:19:37;8.90;;;8.00;;
14096;SDS011;7125;48.106;11.544;2022-12-07T01:22:04;8.50;;;7.53;;
14096;SDS011;7125;48.106;11.544;2022-12-07T01:24:31;9.03;;;7.73;;
14096;SDS011;7125;48.106;11.544;2022-12-07T01:26:58;8.37;;;7.50;;
14096;SDS011;7125;48.106;11.544;2022-12-07T01:29:25;8.07;;;7.27;;
14096;SDS011;7125;48.106;11.544;2022-12-07T01:31:53;9.33;;;8.13;;
14096;SDS011;7125;48.106;11.544;2022-12-07T01:34:20;10.90;;;8.90;;
14096;SDS011;7125;48.106;11.544;2022-12-07T01:36:47;7.97;;;7.17;;
14096;SDS011;7125;48.106;11.544;2022-12-07T01:39:14;8.80;;;7.80;;
14096;SDS011;7125;48.106;11.544;2022-12-07T01:41:41;11.33;;;8.47;;
14096;SDS011;7125;48.106;11.544;2022-12-07T01:44:13;8.80;;;7.87;;
14096;SDS011;7125;48.106;11.544;2022-12-07T01:46:45;9.80;;;8.17;;
14096;SDS011;7125;48.106;11.544;2022-12-07T01:49:24;9.87;;;8.87;;
14096;SDS011;7125;48.106;11.544;2022-12-07T01:51:57;11.10;;;7.40;;
14096;SDS011;7125;48.106;11.544;2022-12-07T01:54:31;8.07;;;7.27;;
14096;SDS011;7125;48.106;11.544;2022-12-07T01:56:58;10.33;;;9.33;;
14096;SDS011;7125;48.106;11.544;2022-12-07T01:59:26;9.47;;;8.40;;
14096;SDS011;7125;48.106;11.544;2022-12-07T02:01:54;10.47;;;8.00;;
14096;SDS011;7125;48.106;11.544;2022-12-07T02:04:23;9.67;;;8.23;;
14096;SDS011;7125;48.106;11.544;2022-12-07T02:06:51;10.37;;;9.17;;
14096;SDS011;7125;48.106;11.544;2022-12-07T02:09:19;10.87;;;8.73;;
14096;SDS011;7125;48.106;11.544;2022-12-07T02:11:46;9.53;;;7.93;;
14096;SDS011;7125;48.106;11.544;2022-12-07T02:14:14;8.70;;;7.80;;
14096;SDS011;7125;48.106;11.544;2022-12-07T02:16:46;9.70;;;7.37;;
14096;SDS011;7125;48.106;11.544;2022-12-07T02:19:37;9.47;;;8.47;;
14096;SDS011;7125;48.106;11.544;2022-12-07T02:22:28;10.23;;;7.60;;
14096;SDS011;7125;48.106;11.544;2022-12-07T02:25:22;8.60;;;7.77;;
14096;SDS011;7125;48.106;11.544;2022-12-07T02:28:00;11.17;;;8.20;;
14096;SDS011;7125;48.106;11.544;2022-12-07T02:30:42;9.17;;;8.27;;
14096;SDS011;7125;48.106;11.544;2022-12-07T02:33:13;9.40;;;8.43;;
14096;SDS011;7125;48.106;11.544;2022-12-07T02:35:44;9.50;;;8.17;;
14096;SDS011;7125;48.106;11.544;2022-12-07T02:38:18;9.43;;;8.40;;
14096;SDS011;7125;48.106;11.544;2022-12-07T02:40:52;10.10;;;8.20;;
14096;SDS011;7125;48.106;11.544;2022-12-07T02:43:25;8.90;;;7.57;;
14096;SDS011;7125;48.106;11.544;2022-12-07T02:45:56;9.13;;;7.73;;
14096;SDS011;7125;48.106;11.544;2022-12-07T02:48:28;9.40;;;8.13;;
14096;SDS011;7125;48.106;11.544;2022-12-07T02:50:57;10.03;;;8.47;;
14096;SDS011;7125;48.106;11.544;2022-12-07T02:53:28;10.73;;;8.43;;
14096;SDS011;7125;48.106;11.544;2022-12-07T02:55:56;10.20;;;8.33;;
14096;SDS011;7125;48.106;11.544;2022-12-07T02:58:27;9.13;;;7.93;;
14096;SDS011;7125;48.106;11.544;2022-12-07T03:01:04;11.40;;;8.77;;
14096;SDS011;7125;48.106;11.544;2022-12-07T03:03:37;9.67;;;8.17;;
14096;SDS011;7125;48.106;11.544;2022-12-07T03:06:14;9.33;;;8.23;;
14096;SDS011;7125;48.106;11.544;2022-12-07T03:08:51;10.00;;;8.43;;
14096;SDS011;7125;48.106;11.544;2022-12-07T03:11:23;10.50;;;9.37;;
14096;SDS011;7125;48.106;11.544;2022-12-07T03:13:59;9.00;;;8.10;;
14096;SDS011;7125;48.106;11.544;2022-12-07T03:16:30;8.93;;;8.03;;
14096;SDS011;7125;48.106;11.544;2022-12-07T03:19:03;9.83;;;7.80;;
14096;SDS011;7125;48.106;11.544;2022-12-07T03:21:34;9.83;;;8.40;;
14096;SDS011;7125;48.106;11.544;2022-12-07T03:24:07;9.77;;;8.00;;
14096;SDS011;7125;48.106;11.544;2022-12-07T03:26:38;9.97;;;8.97;;
14096;SDS011;7125;48.106;11.544;2022-12-07T03:29:11;8.97;;;8.07;;
14096;SDS011;7125;48.106;11.544;2022-12-07T03:31:45;9.80;;;8.53;;
14096;SDS011;7125;48.106;11.544;2022-12-07T03:34:16;10.90;;;7.73;;
14096;SDS011;7125;48.106;11.544;2022-12-07T03:36:49;11.50;;;9.43;;
14096;SDS011;7125;48.106;11.544;2022-12-07T03:39:22;9.97;;;8.63;;
14096;SDS011;7125;48.106;11.544;2022-12-07T03:41:53;9.70;;;8.67;;
14096;SDS011;7125;48.106;11.544;2022-12-07T03:44:23;9.60;;;7.83;;
14096;SDS011;7125;48.106;11.544;2022-12-07T03:46:55;11.40;;;8.47;;
14096;SDS011;7125;48.106;11.544;2022-12-07T04:59:38;13.00;;;10.90;;
14096;SDS011;7125;48.106;11.544;2022-12-07T05:02:05;13.20;;;10.10;;
14096;SDS011;7125;48.106;11.544;2022-12-07T05:04:32;11.10;;;9.63;;
14096;SDS011;7125;48.106;11.544;2022-12-07T05:06:59;12.43;;;11.07;;
14096;SDS011;7125;48.106;11.544;2022-12-07T05:09:26;13.77;;;12.13;;
14096;SDS011;7125;48.106;11.544;2022-12-07T05:11:53;14.37;;;11.03;;
14096;SDS011;7125;48.106;11.544;2022-12-07T05:14:20;15.90;;;11.80;;
14096;SDS011;7125;48.106;11.544;2022-12-07T05:16:49;13.43;;;11.53;;
14096;SDS011;7125;48.106;11.544;2022-12-07T05:19:18;14.03;;;11.20;;
14096;SDS011;7125;48.106;11.544;2022-12-07T05:21:46;14.40;;;10.47;;
14096;SDS011;7125;48.106;11.544;2022-12-07T05:24:14;12.73;;;10.23;;
14096;SDS011;7125;48.106;11.544;2022-12-07T05:26:42;13.80;;;11.33;;
14096;SDS011;7125;48.106;11.544;2022-12-07T05:29:10;12.33;;;11.03;;
14096;SDS011;7125;48.106;11.544;2022-12-07T05:31:38;12.33;;;11.03;;
14096;SDS011;7125;48.106;11.544;2022-12-07T05:34:07;15.27;;;12.40;;
14096;SDS011;7125;48.106;11.544;2022-12-07T05:36:34;14.43;;;12.03;;
14096;SDS011;7125;48.106;11.544;2022-12-07T05:39:01;12.23;;;10.70;;
14096;SDS011;7125;48.106;11.544;2022-12-07T05:41:28;12.87;;;11.10;;
14096;SDS011;7125;48.106;11.544;2022-12-07T05:44:27;14.83;;;10.67;;
14096;SDS011;7125;48.106;11.544;2022-12-07T05:46:54;12.83;;;11.00;;
14096;SDS011;7125;48.106;11.544;2022-12-07T05:49:22;12.63;;;10.53;;
14096;SDS011;7125;48.106;11.544;2022-12-07T05:51:49;14.30;;;11.00;;
14096;SDS011;7125;48.106;11.544;2022-12-07T05:54:16;12.73;;;10.67;;
14096;SDS011;7125;48.106;11.544;2022-12-07T05:56:43;14.70;;;12.03;;
14096;SDS011;7125;48.106;11.544;2022-12-07T05:59:10;12.13;;;10.87;;
14096;SDS011;7125;48.106;11.544;2022-12-07T06:01:47;14.47;;;12.33;;
14096;SDS011;7125;48.106;11.544;2022-12-07T06:04:14;13.63;;;12.17;;
14096;SDS011;7125;48.106;11.544;2022-12-07T06:06:44;13.60;;;12.07;;
14096;SDS011;7125;48.106;11.544;2022-12-07T06:09:13;15.67;;;12.43;;
14096;SDS011;7125;48.106;11.544;2022-12-07T06:14:18;15.77;;;13.13;;
14096;SDS011;7125;48.106;11.544;2022-12-07T06:16:47;13.80;;;11.93;;
14096;SDS011;7125;48.106;11.544;2022-12-07T06:19:16;14.93;;;11.67;;
14096;SDS011;7125;48.106;11.544;2022-12-07T06:21:44;16.67;;;12.60;;
14096;SDS011;7125;48.106;11.544;2022-12-07T06:24:11;15.47;;;13.23;;
14096;SDS011;7125;48.106;11.544;2022-12-07T06:26:39;17.53;;;13.10;;
14096;SDS011;7125;48.106;11.544;2022-12-07T06:29:07;16.10;;;13.40;;
14096;SDS011;7125;48.106;11.544;2022-12-07T06:31:35;14.33;;;11.83;;
14096;SDS011;7125;48.106;11.544;2022-12-07T06:34:03;16.37;;;13.03;;
14096;SDS011;7125;48.106;11.544;2022-12-07T06:36:31;16.33;;;12.93;;
14096;SDS011;7125;48.106;11.544;2022-12-07T06:38:59;15.57;;;12.97;;
14096;SDS011;7125;48.106;11.544;2022-12-07T06:41:27;15.50;;;13.10;;
14096;SDS011;7125;48.106;11.544;2022-12-07T06:43:54;18.30;;;13.77;;
14096;SDS011;7125;48.106;11.544;2022-12-07T06:46:21;16.63;;;13.63;;
14096;SDS011;7125;48.106;11.544;2022-12-07T06:48:48;13.43;;;12.07;;
14096;SDS011;7125;48.106;11.544;2022-12-07T06:56:41;16.40;;;13.43;;
14096;SDS011;7125;48.106;11.544;2022-12-07T06:59:09;15.70;;;12.13;;
14096;SDS011;7125;48.106;11.544;2022-12-07T07:01:35;15.03;;;12.97;;
14096;SDS011;7125;48.106;11.544;2022-12-07T07:04:03;14.00;;;12.07;;
14096;SDS011;7125;48.106;11.544;2022-12-07T07:06:30;16.30;;;12.97;;
14096;SDS011;7125;48.106;11.544;2022-12-07T07:08:57;15.57;;;13.20;;
14096;SDS011;7125;48.106;11.544;2022-12-07T07:11:23;15.60;;;12.73;;
14096;SDS011;7125;48.106;11.544;2022-12-07T07:13:52;15.10;;;12.03;;
14096;SDS011;7125;48.106;11.544;2022-12-07T07:16:22;13.77;;;10.97;;
14096;SDS011;7125;48.106;11.544;2022-12-07T07:18:50;14.20;;;11.90;;
14096;SDS011;7125;48.106;11.544;2022-12-07T07:21:17;14.00;;;12.43;;
14096;SDS011;7125;48.106;11.544;2022-12-07T07:23:44;14.30;;;11.37;;
14096;SDS011;7125;48.106;11.544;2022-12-07T07:26:11;15.27;;;12.70;;
14096;SDS011;7125;48.106;11.544;2022-12-07T07:28:38;16.03;;;13.27;;
14096;SDS011;7125;48.106;11.544;2022-12-07T07:31:06;13.93;;;11.40;;
14096;SDS011;7125;48.106;11.544;2022-12-07T07:33:33;14.47;;;12.27;;
14096;SDS011;7125;48.106;11.544;2022-12-07T07:36:00;15.43;;;11.67;;
14096;SDS011;7125;48.106;11.544;2022-12-07T07:38:27;13.93;;;12.10;;
14096;SDS011;7125;48.106;11.544;2022-12-07T07:40:54;16.27;;;11.80;;
14096;SDS011;7125;48.106;11.544;2022-12-07T07:43:21;13.43;;;11.97;;
14096;SDS011;7125;48.106;11.544;2022-12-07T07:45:47;14.23;;;11.63;;
14096;SDS011;7125;48.106;11.544;2022-12-07T07:48:16;14.57;;;12.23;;
14096;SDS011;7125;48.106;11.544;2022-12-07T07:50:43;15.40;;;12.83;;
14096;SDS011;7125;48.106;11.544;2022-12-07T07:53:10;15.77;;;13.63;;
14096;SDS011;7125;48.106;11.544;2022-12-07T07:55:36;15.90;;;12.40;;
14096;SDS011;7125;48.106;11.544;2022-12-07T07:58:03;15.23;;;13.07;;
14096;SDS011;7125;48.106;11.544;2022-12-07T08:00:30;19.60;;;13.97;;
14096;SDS011;7125;48.106;11.544;2022-12-07T08:02:57;19.17;;;13.07;;
14096;SDS011;7125;48.106;11.544;2022-12-07T08:05:25;16.50;;;12.07;;
14096;SDS011;7125;48.106;11.544;2022-12-07T08:07:52;15.03;;;12.87;;
14096;SDS011;7125;48.106;11.544;2022-12-07T08:10:19;18.07;;;12.50;;
14096;SDS011;7125;48.106;11.544;2022-12-07T08:12:46;18.37;;;14.10;;
14096;SDS011;7125;48.106;11.544;2022-12-07T08:15:31;18.03;;;14.40;;
14096;SDS011;7125;48.106;11.544;2022-12-07T08:17:58;16.27;;;14.23;;
14096;SDS011;7125;48.106;11.544;2022-12-07T08:20:26;16.87;;;13.63;;
14096;SDS011;7125;48.106;11.544;2022-12-07T08:22:55;13.47;;;11.47;;
14096;SDS011;7125;48.106;11.544;2022-12-07T08:25:23;18.77;;;13.03;;
14096;SDS011;7125;48.106;11.544;2022-12-07T08:27:50;16.50;;;12.90;;
14096;SDS011;7125;48.106;11.544;2022-12-07T08:30:18;18.53;;;14.00;;
14096;SDS011;7125;48.106;11.544;2022-12-07T08:32:46;15.77;;;12.10;;
14096;SDS011;7125;48.106;11.544;2022-12-07T08:35:16;19.00;;;13.30;;
14096;SDS011;7125;48.106;11.544;2022-12-07T08:37:45;14.57;;;11.20;;
14096;SDS011;7125;48.106;11.544;2022-12-07T08:40:12;17.30;;;12.53;;
14096;SDS011;7125;48.106;11.544;2022-12-07T08:42:41;15.80;;;12.50;;
14096;SDS011;7125;48.106;11.544;2022-12-07T08:45:10;16.13;;;12.70;;
14096;SDS011;7125;48.106;11.544;2022-12-07T08:47:39;14.40;;;12.90;;
14096;SDS011;7125;48.106;11.544;2022-12-07T08:50:08;14.17;;;12.77;;
14096;SDS011;7125;48.106;11.544;2022-12-07T08:52:37;12.37;;;11.00;;
14096;SDS011;7125;48.106;11.544;2022-12-07T08:55:08;11.97;;;10.83;;
14096;SDS011;7125;48.106;11.544;2022-12-07T08:57:36;15.67;;;12.60;;
14096;SDS011;7125;48.106;11.544;2022-12-07T09:00:03;14.23;;;12.40;;
14096;SDS011;7125;48.106;11.544;2022-12-07T09:02:32;17.23;;;13.07;;
14096;SDS011;7125;48.106;11.544;2022-12-07T09:04:59;14.13;;;12.73;;
14096;SDS011;7125;48.106;11.544;2022-12-07T09:07:25;14.33;;;12.30;;
14096;SDS011;7125;48.106;11.544;2022-12-07T09:09:53;13.50;;;11.90;;
14096;SDS011;7125;48.106;11.544;2022-12-07T09:12:21;12.30;;;10.63;;
14096;SDS011;7125;48.106;11.544;2022-12-07T09:14:48;13.70;;;10.63;;
14096;SDS011;7125;48.106;11.544;2022-12-07T09:17:15;15.13;;;12.30;;
14096;SDS011;7125;48.106;11.544;2022-12-07T09:19:42;15.00;;;11.57;;
14096;SDS011;7125;48.106;11.544;2022-12-07T09:22:08;14.90;;;12.27;;
14096;SDS011;7125;48.106;11.544;2022-12-07T09:24:35;15.77;;;12.23;;
14096;SDS011;7125;48.106;11.544;2022-12-07T09:27:02;13.27;;;11.87;;
14096;SDS011;7125;48.106;11.544;2022-12-07T09:29:31;14.20;;;11.83;;
14096;SDS011;7125;48.106;11.544;2022-12-07T09:31:57;11.70;;;10.07;;
14096;SDS011;7125;48.106;11.544;2022-12-07T09:34:25;12.90;;;11.03;;
14096;SDS011;7125;48.106;11.544;2022-12-07T09:36:52;13.70;;;10.97;;
14096;SDS011;7125;48.106;11.544;2022-12-07T09:39:19;13.90;;;11.27;;
14096;SDS011;7125;48.106;11.544;2022-12-07T09:41:46;12.53;;;10.70;;
14096;SDS011;7125;48.106;11.544;2022-12-07T09:44:20;12.87;;;10.70;;
14096;SDS011;7125;48.106;11.544;2022-12-07T09:46:52;12.27;;;10.67;;
14096;SDS011;7125;48.106;11.544;2022-12-07T09:49:20;15.23;;;13.73;;
14096;SDS011;7125;48.106;11.544;2022-12-07T09:51:58;15.77;;;12.10;;
14096;SDS011;7125;48.106;11.544;2022-12-07T09:54:27;13.70;;;10.87;;
14096;SDS011;7125;48.106;11.544;2022-12-07T09:56:56;11.50;;;10.20;;
14096;SDS011;7125;48.106;11.544;2022-12-07T09:59:23;12.17;;;9.90;;
14096;SDS011;7125;48.106;11.544;2022-12-07T10:01:50;10.73;;;9.50;;
14096;SDS011;7125;48.106;11.544;2022-12-07T10:04:19;12.53;;;10.00;;
14096;SDS011;7125;48.106;11.544;2022-12-07T10:06:48;12.07;;;10.07;;
14096;SDS011;7125;48.106;11.544;2022-12-07T10:09:16;10.23;;;8.53;;
14096;SDS011;7125;48.106;11.544;2022-12-07T10:11:57;12.13;;;9.03;;
14096;SDS011;7125;48.106;11.544;2022-12-07T10:14:25;10.97;;;9.07;;
14096;SDS011;7125;48.106;11.544;2022-12-07T10:16:56;9.97;;;8.73;;
14096;SDS011;7125;48.106;11.544;2022-12-07T10:19:24;14.03;;;9.97;;
14096;SDS011;7125;48.106;11.544;2022-12-07T10:22:00;9.33;;;8.40;;
14096;SDS011;7125;48.106;11.544;2022-12-07T10:24:35;10.80;;;8.27;;
14096;SDS011;7125;48.106;11.544;2022-12-07T10:27:04;9.23;;;7.27;;
14096;SDS011;7125;48.106;11.544;2022-12-07T10:29:32;8.50;;;7.60;;
14096;SDS011;7125;48.106;11.544;2022-12-07T10:32:03;7.33;;;6.53;;
14096;SDS011;7125;48.106;11.544;2022-12-07T10:34:32;8.93;;;7.87;;
14096;SDS011;7125;48.106;11.544;2022-12-07T10:37:13;10.57;;;8.57;;
14096;SDS011;7125;48.106;11.544;2022-12-07T10:39:43;8.60;;;7.13;;
14096;SDS011;7125;48.106;11.544;2022-12-07T10:42:15;10.07;;;8.30;;
14096;SDS011;7125;48.106;11.544;2022-12-07T10:44:44;12.87;;;9.30;;
14096;SDS011;7125;48.106;11.544;2022-12-07T10:47:17;8.13;;;7.33;;
14096;SDS011;7125;48.106;11.544;2022-12-07T10:56:10;7.43;;;6.47;;
14096;SDS011;7125;48.106;11.544;2022-12-07T10:58:52;6.80;;;5.87;;
14096;SDS011;7125;48.106;11.544;2022-12-07T11:01:31;5.87;;;5.27;;
14096;SDS011;7125;48.106;11.544;2022-12-07T11:04:07;8.40;;;6.23;;
14096;SDS011;7125;48.106;11.544;2022-12-07T11:06:50;6.57;;;5.67;;
14096;SDS011;7125;48.106;11.544;2022-12-07T11:09:31;7.97;;;6.03;;
14096;SDS011;7125;48.106;11.544;2022-12-07T11:12:17;6.33;;;5.10;;
14096;SDS011;7125;48.106;11.544;2022-12-07T11:20:19;10.73;;;5.07;;
14096;SDS011;7125;48.106;11.544;2022-12-07T11:23:03;8.10;;;5.43;;
14096;SDS011;7125;48.106;11.544;2022-12-07T11:25:39;10.43;;;6.37;;
14096;SDS011;7125;48.106;11.544;2022-12-07T11:28:17;6.03;;;5.33;;
14096;SDS011;7125;48.106;11.544;2022-12-07T11:30:57;7.60;;;6.10;;
14096;SDS011;7125;48.106;11.544;2022-12-07T11:33:35;6.07;;;5.00;;
14096;SDS011;7125;48.106;11.544;2022-12-07T11:36:10;7.00;;;5.57;;
14096;SDS011;7125;48.106;11.544;2022-12-07T11:38:44;6.87;;;5.30;;
14096;SDS011;7125;48.106;11.544;2022-12-07T11:41:17;6.73;;;5.77;;
14096;SDS011;7125;48.106;11.544;2022-12-07T11:44:00;6.33;;;5.53;;
14096;SDS011;7125;48.106;11.544;2022-12-07T11:46:36;5.87;;;4.57;;
14096;SDS011;7125;48.106;11.544;2022-12-07T11:49:13;5.37;;;4.27;;
14096;SDS011;7125;48.106;11.544;2022-12-07T11:51:47;4.90;;;4.33;;
14096;SDS011;7125;48.106;11.544;2022-12-07T11:54:18;4.40;;;4.00;;
14096;SDS011;7125;48.106;11.544;2022-12-07T11:56:49;6.27;;;4.63;;
14096;SDS011;7125;48.106;11.544;2022-12-07T11:59:21;5.27;;;4.53;;
14096;SDS011;7125;48.106;11.544;2022-12-07T12:02:00;5.07;;;4.57;;
14096;SDS011;7125;48.106;11.544;2022-12-07T12:04:54;5.90;;;5.30;;
14096;SDS011;7125;48.106;11.544;2022-12-07T12:12:34;6.00;;;5.10;;
14096;SDS011;7125;48.106;11.544;2022-12-07T12:15:18;10.47;;;6.63;;
14096;SDS011;7125;48.106;11.544;2022-12-07T12:20:53;5.90;;;5.30;;
14096;SDS011;7125;48.106;11.544;2022-12-07T12:39:20;6.87;;;5.57;;
14096;SDS011;7125;48.106;11.544;2022-12-07T12:41:59;6.10;;;5.50;;
14096;SDS011;7125;48.106;11.544;2022-12-07T12:47:40;6.93;;;6.23;;
14096;SDS011;7125;48.106;11.544;2022-12-07T12:50:29;7.63;;;6.83;;
14096;SDS011;7125;48.106;11.544;2022-12-07T12:58:41;7.83;;;7.00;;
14096;SDS011;7125;48.106;11.544;2022-12-07T13:04:14;8.87;;;7.80;;
14096;SDS011;7125;48.106;11.544;2022-12-07T13:06:51;9.20;;;7.87;;
14096;SDS011;7125;48.106;11.544;2022-12-07T13:09:21;9.30;;;7.23;;
14096;SDS011;7125;48.106;11.544;2022-12-07T13:11:56;9.23;;;7.20;;
14096;SDS011;7125;48.106;11.544;2022-12-07T13:14:37;9.53;;;7.53;;
14096;SDS011;7125;48.106;11.544;2022-12-07T13:23:25;7.87;;;6.30;;
14096;SDS011;7125;48.106;11.544;2022-12-07T13:26:11;8.43;;;7.30;;
14096;SDS011;7125;48.106;11.544;2022-12-07T13:28:43;10.03;;;7.53;;
14096;SDS011;7125;48.106;11.544;2022-12-07T13:31:18;8.50;;;6.63;;
14096;SDS011;7125;48.106;11.544;2022-12-07T13:33:50;8.40;;;7.10;;
14096;SDS011;7125;48.106;11.544;2022-12-07T13:36:19;11.10;;;7.03;;
14096;SDS011;7125;48.106;11.544;2022-12-07T13:38:50;9.13;;;7.37;;
14096;SDS011;7125;48.106;11.544;2022-12-07T13:44:00;9.10;;;7.23;;
14096;SDS011;7125;48.106;11.544;2022-12-07T13:46:32;7.87;;;6.43;;
14096;SDS011;7125;48.106;11.544;2022-12-07T13:49:15;10.47;;;7.50;;
14096;SDS011;7125;48.106;11.544;2022-12-07T13:51:45;7.60;;;6.43;;
14096;SDS011;7125;48.106;11.544;2022-12-07T13:54:13;8.23;;;6.10;;
14096;SDS011;7125;48.106;11.544;2022-12-07T13:56:41;7.60;;;6.80;;
14096;SDS011;7125;48.106;11.544;2022-12-07T13:59:14;9.37;;;6.70;;
14096;SDS011;7125;48.106;11.544;2022-12-07T14:01:45;7.97;;;6.90;;
14096;SDS011;7125;48.106;11.544;2022-12-07T14:07:00;6.80;;;6.10;;
14096;SDS011;7125;48.106;11.544;2022-12-07T14:09:53;8.70;;;6.13;;
14096;SDS011;7125;48.106;11.544;2022-12-07T14:12:25;8.13;;;6.17;;
14096;SDS011;7125;48.106;11.544;2022-12-07T14:14:55;7.50;;;6.00;;
14096;SDS011;7125;48.106;11.544;2022-12-07T14:17:24;8.37;;;6.57;;
14096;SDS011;7125;48.106;11.544;2022-12-07T14:19:53;8.37;;;6.50;;
14096;SDS011;7125;48.106;11.544;2022-12-07T14:22:23;11.63;;;6.77;;
14096;SDS011;7125;48.106;11.544;2022-12-07T14:27:56;8.43;;;6.17;;
14096;SDS011;7125;48.106;11.544;2022-12-07T14:30:27;7.50;;;6.53;;
14096;SDS011;7125;48.106;11.544;2022-12-07T14:32:57;9.07;;;6.90;;
14096;SDS011;7125;48.106;11.544;2022-12-07T14:35:26;7.30;;;5.90;;
14096;SDS011;7125;48.106;11.544;2022-12-07T14:37:53;7.77;;;7.03;;
14096;SDS011;7125;48.106;11.544;2022-12-07T14:40:21;9.90;;;7.40;;
14096;SDS011;7125;48.106;11.544;2022-12-07T14:42:50;8.70;;;7.13;;
14096;SDS011;7125;48.106;11.544;2022-12-07T14:45:21;8.90;;;7.00;;
14096;SDS011;7125;48.106;11.544;2022-12-07T14:47:50;9.87;;;7.13;;
14096;SDS011;7125;48.106;11.544;2022-12-07T14:50:17;10.73;;;7.27;;
14096;SDS011;7125;48.106;11.544;2022-12-07T14:52:47;9.03;;;6.77;;
14096;SDS011;7125;48.106;11.544;2022-12-07T14:55:20;9.97;;;8.23;;
14096;SDS011;7125;48.106;11.544;2022-12-07T14:57:50;11.03;;;7.63;;
14096;SDS011;7125;48.106;11.544;2022-12-07T15:00:18;8.17;;;6.73;;
14096;SDS011;7125;48.106;11.544;2022-12-07T15:02:47;9.67;;;7.40;;
14096;SDS011;7125;48.106;11.544;2022-12-07T15:05:16;10.17;;;8.37;;
14096;SDS011;7125;48.106;11.544;2022-12-07T15:07:45;7.83;;;6.40;;
14096;SDS011;7125;48.106;11.544;2022-12-07T15:10:13;8.87;;;6.40;;
14096;SDS011;7125;48.106;11.544;2022-12-07T15:12:43;9.13;;;7.07;;
14096;SDS011;7125;48.106;11.544;2022-12-07T15:15:11;10.63;;;8.53;;
14096;SDS011;7125;48.106;11.544;2022-12-07T15:17:38;8.07;;;7.27;;
14096;SDS011;7125;48.106;11.544;2022-12-07T15:20:09;8.83;;;7.50;;
14096;SDS011;7125;48.106;11.544;2022-12-07T15:22:38;9.23;;;7.33;;
14096;SDS011;7125;48.106;11.544;2022-12-07T15:25:05;8.03;;;6.63;;
14096;SDS011;7125;48.106;11.544;2022-12-07T15:27:34;10.20;;;6.83;;
14096;SDS011;7125;48.106;11.544;2022-12-07T15:30:01;13.03;;;7.40;;
14096;SDS011;7125;48.106;11.544;2022-12-07T15:32:29;7.73;;;6.43;;
14096;SDS011;7125;48.106;11.544;2022-12-07T15:34:56;10.27;;;6.80;;
14096;SDS011;7125;48.106;11.544;2022-12-07T15:37:24;11.27;;;7.10;;
14096;SDS011;7125;48.106;11.544;2022-12-07T15:39:51;9.93;;;7.53;;
14096;SDS011;7125;48.106;11.544;2022-12-07T15:42:19;12.23;;;8.50;;
14096;SDS011;7125;48.106;11.544;2022-12-07T15:44:50;9.87;;;7.83;;
14096;SDS011;7125;48.106;11.544;2022-12-07T15:47:31;10.23;;;7.73;;
14096;SDS011;7125;48.106;11.544;2022-12-07T15:50:02;10.23;;;8.00;;
14096;SDS011;7125;48.106;11.544;2022-12-07T15:52:36;11.07;;;8.30;;
14096;SDS011;7125;48.106;11.544;2022-12-07T15:55:09;10.67;;;8.27;;
14096;SDS011;7125;48.106;11.544;2022-12-07T15:57:42;11.17;;;8.07;;
14096;SDS011;7125;48.106;11.544;2022-12-07T16:00:26;13.60;;;9.23;;
14096;SDS011;7125;48.106;11.544;2022-12-07T16:02:57;10.07;;;7.57;;
14096;SDS011;7125;48.106;11.544;2022-12-07T16:05:36;11.07;;;8.33;;
14096;SDS011;7125;48.106;11.544;2022-12-07T16:08:05;11.03;;;8.83;;
14096;SDS011;7125;48.106;11.544;2022-12-07T16:10:32;13.87;;;8.23;;
14096;SDS011;7125;48.106;11.544;2022-12-07T16:13:10;10.20;;;8.07;;
14096;SDS011;7125;48.106;11.544;2022-12-07T16:15:39;12.93;;;9.10;;
14096;SDS011;7125;48.106;11.544;2022-12-07T16:18:24;10.50;;;7.87;;
14096;SDS011;7125;48.106;11.544;2022-12-07T16:21:06;11.07;;;8.90;;
14096;SDS011;7125;48.106;11.544;2022-12-07T16:26:56;14.50;;;9.13;;
14096;SDS011;7125;48.106;11.544;2022-12-07T16:29:33;11.27;;;9.03;;
14096;SDS011;7125;48.106;11.544;2022-12-07T16:32:06;12.93;;;10.77;;
14096;SDS011;7125;48.106;11.544;2022-12-07T16:34:48;15.30;;;9.73;;
14096;SDS011;7125;48.106;11.544;2022-12-07T16:40:40;17.23;;;11.40;;
14096;SDS011;7125;48.106;11.544;2022-12-07T16:43:08;14.03;;;10.47;;
14096;SDS011;7125;48.106;11.544;2022-12-07T16:45:39;15.77;;;11.03;;
14096;SDS011;7125;48.106;11.544;2022-12-07T16:48:06;11.93;;;10.50;;
14096;SDS011;7125;48.106;11.544;2022-12-07T16:50:33;14.70;;;9.50;;
14096;SDS011;7125;48.106;11.544;2022-12-07T16:52:59;18.37;;;10.90;;
14096;SDS011;7125;48.106;11.544;2022-12-07T16:55:28;18.87;;;10.90;;
14096;SDS011;7125;48.106;11.544;2022-12-07T16:57:55;16.03;;;11.63;;
14096;SDS011;7125;48.106;11.544;2022-12-07T17:00:23;12.50;;;10.63;;
14096;SDS011;7125;48.106;11.544;2022-12-07T17:02:50;15.37;;;10.87;;
14096;SDS011;7125;48.106;11.544;2022-12-07T17:05:17;14.47;;;10.50;;
14096;SDS011;7125;48.106;11.544;2022-12-07T17:07:44;16.87;;;11.30;;
14096;SDS011;7125;48.106;11.544;2022-12-07T17:10:12;17.23;;;12.33;;
14096;SDS011;7125;48.106;11.544;2022-12-07T17:12:40;14.07;;;11.00;;
14096;SDS011;7125;48.106;11.544;2022-12-07T17:15:07;13.33;;;10.63;;
14096;SDS011;7125;48.106;11.544;2022-12-07T17:17:51;15.33;;;11.40;;
14096;SDS011;7125;48.106;11.544;2022-12-07T17:25:36;15.47;;;10.83;;
14096;SDS011;7125;48.106;11.544;2022-12-07T17:28:03;16.27;;;12.27;;